Time;durP1;ratioP1;P1;durP2;ratioP2;P2;SDS_P1;SDS_P2;PMS_P1;PMS_P2;Temp;Humidity;BMP_temperature;BMP_pressure;BME280_temperature;BME280_humidity;BME280_pressure;Samples;Min_cycle;Max_cycle;Signal;HPM_P1;HPM_P2
2022/03/15 00:00:50;;;;;;;1.50;0.93;;;20.50;42.60;;;;;;5082621;28;20084;-46
2022/03/15 00:03:16;;;;;;;0.77;0.60;;;20.50;42.60;;;;;;5082593;28;20087;-45
2022/03/15 00:05:42;;;;;;;1.10;0.80;;;20.50;42.40;;;;;;5082403;28;20060;-45
2022/03/15 00:08:09;;;;;;;0.82;0.70;;;20.50;42.30;;;;;;5092878;28;20043;-45
2022/03/15 00:10:35;;;;;;;1.05;0.80;;;20.50;42.50;;;;;;5102865;28;20081;-45
2022/03/15 00:13:01;;;;;;;0.70;0.70;;;20.50;42.50;;;;;;5102477;28;20016;-45
2022/03/15 00:15:27;;;;;;;0.75;0.75;;;20.50;42.60;;;;;;5103019;28;20031;-45
2022/03/15 00:17:53;;;;;;;0.85;0.68;;;20.50;42.80;;;;;;5102919;28;20028;-45
2022/03/15 00:20:21;;;;;;;0.88;0.70;;;20.50;42.50;;;;;;5084308;28;20059;-45
2022/03/15 00:22:47;;;;;;;0.90;0.80;;;20.40;42.70;;;;;;5102169;28;20043;-45
2022/03/15 00:25:16;;;;;;;1.10;0.85;;;20.40;43.10;;;;;;5099542;28;20092;-45
2022/03/15 00:27:44;;;;;;;0.90;0.70;;;20.40;42.50;;;;;;5102582;28;20427;-45
2022/03/15 00:30:10;;;;;;;1.00;0.80;;;20.40;42.80;;;;;;5102635;28;20039;-45
2022/03/15 00:32:36;;;;;;;1.30;0.97;;;20.40;42.90;;;;;;5102013;28;20031;-45
2022/03/15 00:35:08;;;;;;;1.08;0.70;;;20.40;42.90;;;;;;5102047;28;20024;-45
2022/03/15 00:37:36;;;;;;;1.15;0.88;;;20.40;43.10;;;;;;5101718;28;20028;-45
2022/03/15 00:40:04;;;;;;;0.77;0.68;;;20.40;42.90;;;;;;5102457;28;20096;-45
2022/03/15 00:42:30;;;;;;;1.40;0.80;;;20.40;42.70;;;;;;5101983;28;20024;-45
2022/03/15 00:45:01;;;;;;;1.10;0.70;;;20.40;42.60;;;;;;5102575;28;20096;-45
2022/03/15 00:47:28;;;;;;;1.27;0.80;;;20.40;42.50;;;;;;5102634;28;20031;-45
2022/03/15 00:49:55;;;;;;;1.65;0.95;;;20.40;43.10;;;;;;5102375;28;20078;-44
2022/03/15 00:52:21;;;;;;;1.40;0.90;;;20.40;43.30;;;;;;5101658;28;20028;-44
2022/03/15 00:54:47;;;;;;;0.93;0.68;;;20.40;43.10;;;;;;5099266;28;20032;-42
2022/03/15 00:57:13;;;;;;;1.10;0.80;;;20.40;43.20;;;;;;5102507;28;20082;-46
2022/03/15 00:59:39;;;;;;;0.93;0.80;;;20.40;43.00;;;;;;5106213;28;20276;-45
2022/03/15 01:02:06;;;;;;;1.38;0.73;;;20.40;43.00;;;;;;5105961;28;20028;-45
2022/03/15 01:04:32;;;;;;;1.10;0.90;;;20.30;42.90;;;;;;5106480;28;20024;-45
2022/03/15 01:06:58;;;;;;;1.08;0.80;;;20.30;42.70;;;;;;5104996;28;20031;-45
2022/03/15 01:09:24;;;;;;;1.20;1.00;;;20.30;42.60;;;;;;5101052;28;20039;-46
2022/03/15 01:11:50;;;;;;;1.52;1.05;;;20.30;43.20;;;;;;5101802;28;20147;-44
2022/03/15 01:14:16;;;;;;;1.40;0.98;;;20.30;43.50;;;;;;5071456;28;20042;-45
2022/03/15 01:16:43;;;;;;;0.85;0.63;;;20.30;43.30;;;;;;5106154;28;20024;-44
2022/03/15 01:19:09;;;;;;;1.08;0.90;;;20.30;43.40;;;;;;5105735;28;20421;-46
2022/03/15 01:21:37;;;;;;;1.17;0.90;;;20.30;43.30;;;;;;5105757;28;20077;-43
2022/03/15 01:24:06;;;;;;;1.45;1.02;;;20.30;43.30;;;;;;5101170;28;20036;-49
2022/03/15 01:26:33;;;;;;;0.93;0.80;;;20.30;43.10;;;;;;5101083;28;20030;-44
2022/03/15 01:29:01;;;;;;;0.88;0.82;;;20.30;43.10;;;;;;5084971;28;20131;-45
2022/03/15 01:31:27;;;;;;;1.50;0.98;;;20.30;43.30;;;;;;5093428;28;20036;-39
2022/03/15 01:33:54;;;;;;;3.58;1.10;;;20.40;43.60;;;;;;5105273;28;20035;-42
2022/03/15 01:36:20;;;;;;;2.63;1.02;;;20.30;43.70;;;;;;5105500;28;20081;-41
2022/03/15 01:38:46;;;;;;;1.40;1.00;;;20.40;43.90;;;;;;5104121;28;20016;-41
2022/03/15 01:41:12;;;;;;;5.30;1.10;;;20.40;43.80;;;;;;5104967;28;20112;-41
2022/03/15 01:43:42;;;;;;;1.58;0.95;;;20.40;43.90;;;;;;5105044;28;20032;-39
2022/03/15 01:46:28;;;;;;;1.77;0.90;;;20.40;43.90;;;;;;5042802;28;20041;-41
2022/03/15 01:48:54;;;;;;;1.33;0.85;;;20.40;43.90;;;;;;5042426;28;20042;-41
2022/03/15 01:51:21;;;;;;;1.35;0.98;;;20.40;43.90;;;;;;5029485;28;20049;-41
2022/03/15 01:53:47;;;;;;;3.33;1.00;;;20.40;44.10;;;;;;5026877;28;20022;-41
2022/03/15 01:56:14;;;;;;;1.73;1.17;;;20.40;44.20;;;;;;5041983;28;20026;-41
2022/03/15 01:58:40;;;;;;;1.20;0.90;;;20.40;44.20;;;;;;5025506;28;20033;-41
2022/03/15 02:01:06;;;;;;;1.38;0.95;;;20.40;44.10;;;;;;5042379;28;20071;-41
2022/03/15 02:03:33;;;;;;;1.00;0.80;;;20.40;44.10;;;;;;5041989;28;20033;-41
2022/03/15 02:06:01;;;;;;;1.60;1.25;;;20.40;43.90;;;;;;5041952;28;20093;-39
2022/03/15 02:08:27;;;;;;;1.20;0.82;;;20.40;43.90;;;;;;5041627;28;20192;-39
2022/03/15 02:10:54;;;;;;;2.25;1.00;;;20.40;43.80;;;;;;5040599;28;20045;-41
2022/03/15 02:13:20;;;;;;;0.95;0.75;;;20.40;44.10;;;;;;5041301;28;20025;-41
2022/03/15 02:15:46;;;;;;;1.30;1.10;;;20.40;44.20;;;;;;5042018;28;20064;-41
2022/03/15 02:18:12;;;;;;;2.03;1.48;;;20.40;44.20;;;;;;5041718;28;20076;-42
2022/03/15 02:20:38;;;;;;;2.17;1.23;;;20.40;44.10;;;;;;5041391;28;20036;-42
2022/03/15 02:23:04;;;;;;;4.63;1.20;;;20.40;44.10;;;;;;5062020;28;20758;-42
2022/03/15 02:25:30;;;;;;;1.20;1.00;;;20.40;44.00;;;;;;5095468;28;20100;-42
2022/03/15 02:27:56;;;;;;;3.15;1.10;;;20.40;44.00;;;;;;5104559;28;20576;-41
2022/03/15 02:30:23;;;;;;;1.70;1.10;;;20.40;44.00;;;;;;5104624;28;20051;-43
2022/03/15 02:32:49;;;;;;;1.80;1.10;;;20.50;44.20;;;;;;5104143;28;20024;-41
2022/03/15 02:35:15;;;;;;;2.08;0.98;;;20.50;44.40;;;;;;5104173;28;20049;-41
2022/03/15 02:37:45;;;;;;;1.52;1.13;;;20.50;44.60;;;;;;5103298;28;20020;-41
2022/03/15 02:40:11;;;;;;;1.00;0.80;;;20.50;44.80;;;;;;5103887;28;20023;-42
2022/03/15 02:42:37;;;;;;;1.00;0.80;;;20.60;45.00;;;;;;5097326;28;20044;-39
2022/03/15 02:45:04;;;;;;;0.90;0.73;;;20.70;45.30;;;;;;5065716;28;20031;-42
2022/03/15 02:47:30;;;;;;;1.25;1.00;;;20.70;45.20;;;;;;5104137;28;20036;-42
2022/03/15 02:49:56;;;;;;;1.00;0.90;;;20.70;45.00;;;;;;5104283;28;20035;-40
2022/03/15 02:52:26;;;;;;;1.33;1.00;;;20.70;44.80;;;;;;5103792;28;20028;-42
2022/03/15 02:54:52;;;;;;;1.35;1.00;;;20.80;45.00;;;;;;5099712;28;20032;-40
2022/03/15 02:57:20;;;;;;;1.07;0.97;;;20.90;45.10;;;;;;5083573;28;20567;-39
2022/03/15 02:59:46;;;;;;;1.92;1.02;;;20.90;45.10;;;;;;5084035;28;20028;-40
2022/03/15 03:02:13;;;;;;;1.30;0.75;;;21.00;45.30;;;;;;5083768;28;20039;-39
2022/03/15 03:04:39;;;;;;;1.65;1.00;;;21.00;45.50;;;;;;5083340;28;20032;-42
2022/03/15 03:07:06;;;;;;;1.67;1.10;;;21.00;45.30;;;;;;5084470;28;20115;-39
2022/03/15 03:09:32;;;;;;;1.15;0.82;;;21.00;45.00;;;;;;5103684;28;20039;-41
2022/03/15 03:11:58;;;;;;;0.93;0.82;;;21.00;45.10;;;;;;5103412;28;20873;-41
2022/03/15 03:14:25;;;;;;;1.42;1.05;;;21.10;45.00;;;;;;5103441;28;20023;-39
2022/03/15 03:16:51;;;;;;;1.40;1.10;;;21.20;45.20;;;;;;5103567;28;20020;-42
2022/03/15 03:19:18;;;;;;;1.33;0.93;;;21.20;45.30;;;;;;5103417;28;20536;-42
2022/03/15 03:21:44;;;;;;;1.10;1.00;;;21.20;44.90;;;;;;5102824;28;20032;-42
2022/03/15 03:24:10;;;;;;;1.95;0.88;;;21.20;45.00;;;;;;5100461;28;20035;-42
2022/03/15 03:26:38;;;;;;;0.88;0.80;;;21.20;45.00;;;;;;5103308;28;20090;-43
2022/03/15 03:29:09;;;;;;;1.48;0.98;;;21.30;45.00;;;;;;5103566;28;20043;-42
2022/03/15 03:31:37;;;;;;;1.20;0.88;;;21.40;45.20;;;;;;5102599;28;20040;-40
2022/03/15 03:34:04;;;;;;;0.90;0.77;;;21.40;45.30;;;;;;5103401;28;20028;-43
2022/03/15 03:36:32;;;;;;;1.38;1.10;;;21.40;44.90;;;;;;5103194;28;20123;-41
2022/03/15 03:38:58;;;;;;;1.10;0.85;;;21.40;44.80;;;;;;5101079;28;20043;-41
2022/03/15 03:41:24;;;;;;;1.08;0.95;;;21.40;44.70;;;;;;5102228;28;20058;-43
2022/03/15 03:43:51;;;;;;;1.60;0.98;;;21.50;44.90;;;;;;5103242;28;20092;-43
2022/03/15 03:46:17;;;;;;;1.35;1.05;;;21.50;45.00;;;;;;5103359;28;20034;-43
2022/03/15 03:48:44;;;;;;;1.80;1.00;;;21.50;44.90;;;;;;5103329;28;20089;-40
2022/03/15 03:51:13;;;;;;;1.20;1.02;;;21.50;44.80;;;;;;5102986;28;20032;-40
2022/03/15 03:53:40;;;;;;;1.33;1.00;;;21.50;44.60;;;;;;5101786;28;20116;-41
2022/03/15 03:56:06;;;;;;;1.48;1.10;;;21.50;44.60;;;;;;5096952;28;20135;-42
2022/03/15 03:58:34;;;;;;;1.17;1.08;;;21.60;44.70;;;;;;5102963;28;20584;-41
2022/03/15 04:01:01;;;;;;;2.00;1.20;;;21.60;44.70;;;;;;5102682;28;20052;-40
2022/03/15 04:03:29;;;;;;;;;;;21.60;44.60;;;;;;5103219;28;20044;-40
2022/03/15 04:05:56;;;;;;;1.40;0.98;;;21.70;44.60;;;;;;5102730;28;19904;-42
2022/03/15 04:08:23;;;;;;;1.95;1.15;;;21.60;44.50;;;;;;5101574;28;20091;-43
2022/03/15 04:10:50;;;;;;;;;;;21.60;44.40;;;;;;5102721;28;20032;-39
2022/03/15 04:13:20;;;;;;;1.75;1.33;;;21.70;44.60;;;;;;5102548;28;19908;-39
2022/03/15 04:15:47;;;;;;;1.10;0.90;;;21.70;44.60;;;;;;5102799;28;20063;-40
2022/03/15 04:18:13;;;;;;;1.98;1.40;;;21.70;44.60;;;;;;5102638;28;20054;-47
2022/03/15 04:20:40;;;;;;;1.38;1.17;;;21.70;44.60;;;;;;5102621;28;20034;-42
2022/03/15 04:23:06;;;;;;;1.88;1.30;;;21.70;44.40;;;;;;5101888;28;20096;-39
2022/03/15 04:25:32;;;;;;;1.75;1.40;;;21.70;44.30;;;;;;5095454;28;20656;-41
2022/03/15 04:28:00;;;;;;;1.55;1.20;;;21.80;44.40;;;;;;5102589;28;20028;-41
2022/03/15 04:30:30;;;;;;;1.77;1.38;;;21.80;44.50;;;;;;5102145;28;20040;-42
2022/03/15 04:32:58;;;;;;;1.75;1.42;;;21.80;44.50;;;;;;5101240;28;20047;-44
2022/03/15 04:35:24;;;;;;;;;;;21.80;44.40;;;;;;5102754;28;20051;-42
2022/03/15 04:37:54;;;;;;;1.75;1.30;;;21.80;44.50;;;;;;5101132;28;19919;-40
2022/03/15 04:40:20;;;;;;;1.33;1.17;;;21.80;44.40;;;;;;5102030;28;20032;-42
2022/03/15 04:42:48;;;;;;;1.75;1.60;;;21.80;44.50;;;;;;5102305;28;20043;-41
2022/03/15 04:45:15;;;;;;;1.65;1.20;;;21.80;44.50;;;;;;5102386;28;20028;-42
2022/03/15 04:47:41;;;;;;;1.95;1.50;;;21.90;44.60;;;;;;5102373;28;20028;-41
2022/03/15 04:50:09;;;;;;;1.60;1.30;;;21.90;44.50;;;;;;5102291;28;20050;-41
2022/03/15 04:52:34;;;;;;;;;;;21.80;44.40;;;;;;5102113;28;20039;-42
2022/03/15 04:55:02;;;;;;;1.92;1.48;;;21.90;44.40;;;;;;5096876;28;19931;-41
2022/03/15 04:57:28;;;;;;;2.20;1.60;;;21.80;44.30;;;;;;5093689;28;20036;-40
2022/03/15 04:59:55;;;;;;;1.95;1.50;;;21.90;44.40;;;;;;5102439;28;20393;-41
2022/03/15 05:02:23;;;;;;;2.75;1.60;;;21.90;44.40;;;;;;5101781;28;20036;-41
2022/03/15 05:04:49;;;;;;;2.10;1.60;;;21.90;44.40;;;;;;5102274;28;20024;-41
2022/03/15 05:07:15;;;;;;;2.45;1.70;;;21.90;44.30;;;;;;5101228;28;20082;-41
2022/03/15 05:11:06;;;;;;;1.65;1.30;;;21.90;44.30;;;;;;5102014;28;20043;-41
2022/03/15 05:12:28;;;;;;;1.40;1.30;;;21.90;44.30;;;;;;5081540;28;20054;-41
2022/03/15 05:14:54;;;;;;;2.65;1.77;;;21.90;44.40;;;;;;5080006;28;20070;-41
2022/03/15 05:17:21;;;;;;;2.05;1.67;;;21.90;44.30;;;;;;5101965;28;20035;-41
2022/03/15 05:19:47;;;;;;;2.20;1.60;;;22.00;44.30;;;;;;5101905;28;20436;-41
2022/03/15 05:22:13;;;;;;;1.98;1.77;;;22.00;44.30;;;;;;5101408;28;20037;-41
2022/03/15 05:24:39;;;;;;;1.52;1.38;;;21.90;44.30;;;;;;5092357;28;20716;-41
2022/03/15 05:27:05;;;;;;;1.98;1.52;;;21.90;44.10;;;;;;5090279;28;20035;-41
2022/03/15 05:29:32;;;;;;;2.38;1.52;;;21.90;44.20;;;;;;5101852;28;20040;-41
2022/03/15 05:31:58;;;;;;;2.67;1.88;;;22.00;44.30;;;;;;5101881;28;20477;-41
2022/03/15 05:34:24;;;;;;;2.83;1.70;;;22.00;44.20;;;;;;5102087;28;20030;-41
2022/03/15 05:36:52;;;;;;;2.42;1.60;;;22.00;44.20;;;;;;5083088;28;20024;-40
2022/03/15 05:39:18;;;;;;;2.08;1.70;;;21.90;44.10;;;;;;5083519;28;20052;-41
2022/03/15 05:41:44;;;;;;;2.20;1.67;;;21.90;44.10;;;;;;5101794;28;20036;-42
2022/03/15 05:44:10;;;;;;;2.20;1.90;;;22.00;44.20;;;;;;5101279;28;20047;-42
2022/03/15 05:46:36;;;;;;;2.28;1.77;;;22.00;44.30;;;;;;5104994;28;20092;-42
2022/03/15 05:49:02;;;;;;;2.17;1.60;;;22.00;44.20;;;;;;5105318;28;20115;-42
2022/03/15 05:51:28;;;;;;;2.03;1.67;;;22.00;44.30;;;;;;5105333;28;20160;-41
2022/03/15 05:53:54;;;;;;;2.60;1.70;;;22.00;44.30;;;;;;5104800;28;20111;-42
2022/03/15 05:56:20;;;;;;;2.10;1.80;;;21.90;44.10;;;;;;5102782;28;20058;-42
2022/03/15 05:59:08;;;;;;;2.40;2.00;;;21.90;44.20;;;;;;5084807;28;20060;-41
2022/03/15 06:01:34;;;;;;;2.67;1.70;;;22.00;44.30;;;;;;5002651;28;20046;-42
2022/03/15 06:04:00;;;;;;;2.53;1.70;;;22.00;44.30;;;;;;5002362;28;20034;-42
2022/03/15 06:06:26;;;;;;;2.42;2.15;;;22.00;44.30;;;;;;5002414;28;20038;-42
2022/03/15 06:08:52;;;;;;;2.28;1.88;;;21.90;44.40;;;;;;5001938;28;20565;-42
2022/03/15 06:11:20;;;;;;;2.77;1.97;;;21.90;44.10;;;;;;5002697;28;20427;-42
2022/03/15 06:13:47;;;;;;;3.08;2.13;;;22.00;44.30;;;;;;5002415;28;20093;-42
2022/03/15 06:16:13;;;;;;;;;;;22.00;44.30;;;;;;5003137;28;20130;-42
2022/03/15 06:18:39;;;;;;;2.60;1.65;;;22.00;44.30;;;;;;5002110;28;20626;-42
2022/03/15 06:21:05;;;;;;;2.78;2.10;;;22.00;44.30;;;;;;5002464;28;20045;-41
2022/03/15 06:23:32;;;;;;;2.10;1.80;;;21.90;44.40;;;;;;5001685;28;20213;-41
2022/03/15 06:25:58;;;;;;;2.42;1.98;;;21.90;44.20;;;;;;5002212;28;20088;-41
2022/03/15 06:28:24;;;;;;;2.53;1.98;;;22.00;44.30;;;;;;5001988;28;20034;-41
2022/03/15 06:30:50;;;;;;;2.28;1.80;;;22.00;44.30;;;;;;5002245;28;20042;-41
2022/03/15 06:33:16;;;;;;;1.90;1.70;;;22.00;44.20;;;;;;4984754;28;20062;-41
2022/03/15 06:35:46;;;;;;;2.50;1.77;;;22.00;44.30;;;;;;4983030;28;20042;-41
2022/03/15 06:38:12;;;;;;;2.88;1.90;;;22.00;44.30;;;;;;5018848;28;20393;-41
2022/03/15 06:40:41;;;;;;;2.33;2.00;;;21.90;44.10;;;;;;5090278;28;20046;-41
2022/03/15 06:43:09;;;;;;;4.25;2.03;;;22.00;44.30;;;;;;5104070;28;20032;-41
2022/03/15 06:45:35;;;;;;;2.78;1.95;;;22.00;44.30;;;;;;5104046;28;20173;-41
2022/03/15 06:48:01;;;;;;;1.77;1.50;;;22.00;44.20;;;;;;5104066;28;20148;-42
2022/03/15 06:50:28;;;;;;;3.00;1.90;;;22.00;44.90;;;;;;5104251;28;20556;-41
2022/03/15 06:52:54;;;;;;;2.33;1.80;;;22.00;44.20;;;;;;5103845;28;20028;-41
2022/03/15 06:55:20;;;;;;;2.83;2.10;;;21.90;44.10;;;;;;5103459;28;20032;-42
2022/03/15 06:57:47;;;;;;;2.25;1.88;;;22.00;44.30;;;;;;5103611;28;20020;-41
2022/03/15 07:00:16;;;;;;;2.30;1.90;;;22.00;44.40;;;;;;5084518;28;20043;-42
2022/03/15 07:02:42;;;;;;;2.47;2.05;;;22.00;44.40;;;;;;5086660;28;20054;-42
2022/03/15 07:05:08;;;;;;;2.88;1.85;;;22.00;44.40;;;;;;5103476;28;20039;-41
2022/03/15 07:07:35;;;;;;;2.60;2.00;;;21.90;44.40;;;;;;5097351;28;20027;-41
2022/03/15 07:10:05;;;;;;;2.22;1.77;;;21.90;44.50;;;;;;5084628;28;20143;-41
2022/03/15 07:12:32;;;;;;;2.47;1.98;;;21.90;44.30;;;;;;5103634;28;20039;-42
2022/03/15 07:15:00;;;;;;;3.00;2.38;;;21.90;44.30;;;;;;5103337;28;20028;-41
2022/03/15 07:17:27;;;;;;;4.18;2.20;;;22.00;44.40;;;;;;5103440;28;20086;-41
2022/03/15 07:19:53;;;;;;;2.92;2.20;;;22.00;44.40;;;;;;5103333;28;20050;-41
2022/03/15 07:22:19;;;;;;;2.97;2.25;;;22.00;44.40;;;;;;5103518;28;20626;-41
2022/03/15 07:24:45;;;;;;;2.83;1.90;;;21.90;44.50;;;;;;5103102;28;20036;-41
2022/03/15 07:27:12;;;;;;;3.33;2.25;;;21.90;44.40;;;;;;5103238;28;20032;-41
2022/03/15 07:29:38;;;;;;;2.83;2.15;;;21.90;44.40;;;;;;5103188;28;20044;-41
2022/03/15 07:32:04;;;;;;;3.03;2.08;;;22.00;44.50;;;;;;5103388;28;20030;-41
2022/03/15 07:34:30;;;;;;;2.70;2.00;;;22.00;44.40;;;;;;5103024;28;20039;-41
2022/03/15 07:36:57;;;;;;;3.58;2.22;;;22.00;44.50;;;;;;5102042;28;20024;-41
2022/03/15 07:39:23;;;;;;;2.50;1.98;;;21.90;44.60;;;;;;5082786;28;20032;-41
2022/03/15 07:41:50;;;;;;;2.75;2.17;;;21.90;44.50;;;;;;5099039;28;20404;-41
2022/03/15 07:44:16;;;;;;;2.60;2.03;;;21.90;44.50;;;;;;5102905;28;20168;-41
2022/03/15 07:46:48;;;;;;;2.58;2.10;;;22.00;44.60;;;;;;5102912;28;20024;-41
2022/03/15 07:49:17;;;;;;;2.65;2.17;;;22.00;44.60;;;;;;5102796;28;20027;-41
2022/03/15 07:51:44;;;;;;;3.05;2.40;;;22.00;44.60;;;;;;5103097;28;20080;-41
2022/03/15 07:54:11;;;;;;;2.75;2.10;;;21.90;44.60;;;;;;5102587;28;20046;-41
2022/03/15 07:56:37;;;;;;;2.03;1.67;;;21.90;44.70;;;;;;5102489;28;20035;-42
2022/03/15 07:59:03;;;;;;;3.15;2.20;;;21.90;44.60;;;;;;5102722;28;20027;-42
2022/03/15 08:01:29;;;;;;;2.55;2.08;;;21.90;44.60;;;;;;5102552;28;20024;-42
2022/03/15 08:03:55;;;;;;;2.95;2.40;;;22.00;44.70;;;;;;5102817;28;20024;-41
2022/03/15 08:06:21;;;;;;;3.15;2.28;;;22.00;44.70;;;;;;5102360;28;20039;-42
2022/03/15 08:08:48;;;;;;;2.50;2.13;;;21.90;44.70;;;;;;5085038;28;20039;-41
2022/03/15 08:11:14;;;;;;;2.97;2.30;;;21.90;44.70;;;;;;5076244;28;20043;-41
2022/03/15 08:13:41;;;;;;;3.38;2.45;;;21.90;44.60;;;;;;5102586;28;20487;-41
2022/03/15 08:16:07;;;;;;;2.83;2.05;;;21.90;44.60;;;;;;5102815;28;20031;-41
2022/03/15 08:18:33;;;;;;;2.83;2.20;;;21.90;44.70;;;;;;5101824;28;20043;-41
2022/03/15 08:20:59;;;;;;;3.00;2.30;;;21.90;44.60;;;;;;5102609;28;20031;-41
2022/03/15 08:23:29;;;;;;;3.28;2.42;;;22.00;44.70;;;;;;5102275;28;20024;-41
2022/03/15 08:25:56;;;;;;;4.30;2.55;;;21.90;44.80;;;;;;5102402;28;20091;-42
2022/03/15 08:28:26;;;;;;;3.28;2.58;;;21.90;44.70;;;;;;5085932;28;20096;-41
2022/03/15 08:30:53;;;;;;;3.15;2.35;;;21.90;44.70;;;;;;5102379;28;20043;-41
2022/03/15 08:33:19;;;;;;;2.88;2.38;;;21.90;44.70;;;;;;5102382;28;20028;-41
2022/03/15 08:35:45;;;;;;;3.50;2.38;;;22.00;44.80;;;;;;5101734;28;20035;-41
2022/03/15 08:38:12;;;;;;;3.50;2.47;;;21.90;44.70;;;;;;5100204;28;20056;-41
2022/03/15 08:40:38;;;;;;;2.85;2.30;;;21.90;44.80;;;;;;5102360;28;20707;-41
2022/03/15 08:43:04;;;;;;;3.53;2.53;;;21.90;44.80;;;;;;5102280;28;20032;-41
2022/03/15 08:45:31;;;;;;;3.15;2.40;;;21.90;44.70;;;;;;5102478;28;20489;-41
2022/03/15 08:47:57;;;;;;;3.00;2.55;;;21.90;44.70;;;;;;5101709;28;20028;-41
2022/03/15 08:50:23;;;;;;;2.80;2.20;;;21.90;44.80;;;;;;5102042;28;20044;-41
2022/03/15 08:52:50;;;;;;;2.83;2.35;;;22.00;44.70;;;;;;5101859;28;20444;-41
2022/03/15 08:55:16;;;;;;;3.30;2.40;;;21.90;44.90;;;;;;5102165;28;20032;-41
2022/03/15 08:57:42;;;;;;;3.20;2.30;;;21.90;44.90;;;;;;5087941;28;20293;-43
2022/03/15 09:00:12;;;;;;;3.05;2.30;;;21.90;44.90;;;;;;5100082;28;20032;-41
2022/03/15 09:02:39;;;;;;;3.22;2.30;;;21.90;44.70;;;;;;5101833;28;20024;-41
2022/03/15 09:05:05;;;;;;;3.38;2.78;;;21.90;44.80;;;;;;5102117;28;20035;-41
2022/03/15 09:07:31;;;;;;;2.92;2.22;;;21.90;44.90;;;;;;5100544;28;20039;-43
2022/03/15 09:09:58;;;;;;;3.63;2.72;;;21.90;44.80;;;;;;5101026;28;20071;-41
2022/03/15 09:12:24;;;;;;;3.28;2.47;;;21.90;44.90;;;;;;5081670;28;20120;-41
2022/03/15 09:14:50;;;;;;;3.60;2.80;;;21.80;44.90;;;;;;5081925;28;20028;-41
2022/03/15 09:17:16;;;;;;;3.45;2.67;;;21.90;44.80;;;;;;5081830;28;20059;-41
2022/03/15 09:19:42;;;;;;;2.53;2.25;;;21.90;44.90;;;;;;5100571;28;20040;-41
2022/03/15 09:22:09;;;;;;;3.35;2.50;;;21.90;45.00;;;;;;5105419;28;20043;-41
2022/03/15 09:24:36;;;;;;;3.75;2.60;;;21.90;44.90;;;;;;5105632;28;20106;-41
2022/03/15 09:27:03;;;;;;;3.25;2.45;;;21.90;44.90;;;;;;5099043;28;20032;-41
2022/03/15 09:29:29;;;;;;;3.67;2.30;;;21.80;44.90;;;;;;5105179;28;20400;-41
2022/03/15 09:31:55;;;;;;;4.78;3.10;;;21.90;44.80;;;;;;5105369;28;20032;-41
2022/03/15 09:34:22;;;;;;;3.63;2.90;;;21.90;44.90;;;;;;5105407;28;20491;-41
2022/03/15 09:36:49;;;;;;;3.58;2.85;;;21.90;44.90;;;;;;5104766;28;20116;-40
2022/03/15 09:39:15;;;;;;;3.90;2.55;;;21.90;44.90;;;;;;5104493;28;20026;-41
2022/03/15 09:41:41;;;;;;;3.58;2.80;;;21.90;45.00;;;;;;5105372;28;20039;-41
2022/03/15 09:44:11;;;;;;;3.15;2.60;;;21.80;45.00;;;;;;5105099;28;20131;-41
2022/03/15 09:46:41;;;;;;;3.83;2.80;;;21.80;45.40;;;;;;5098150;28;20047;-41
2022/03/15 09:49:07;;;;;;;3.30;2.70;;;21.90;44.90;;;;;;5104385;28;20032;-41
2022/03/15 09:51:34;;;;;;;3.38;2.78;;;21.90;45.00;;;;;;5086849;28;20028;-41
2022/03/15 09:54:02;;;;;;;3.65;2.85;;;21.90;44.90;;;;;;5104615;28;20024;-41
2022/03/15 09:56:28;;;;;;;;;;;21.90;45.00;;;;;;5104312;28;20040;-41
2022/03/15 09:58:54;;;;;;;3.25;2.42;;;21.80;45.00;;;;;;5104613;28;20308;-41
2022/03/15 10:01:20;;;;;;;3.20;2.60;;;21.80;44.90;;;;;;5104781;28;20100;-41
2022/03/15 10:03:47;;;;;;;3.15;2.80;;;21.80;44.90;;;;;;5104985;28;20092;-41
2022/03/15 10:06:16;;;;;;;4.07;3.10;;;21.90;45.00;;;;;;5105144;28;20028;-41
2022/03/15 10:08:42;;;;;;;3.40;2.85;;;21.90;45.00;;;;;;5103556;28;20534;-41
2022/03/15 10:11:09;;;;;;;3.25;2.47;;;21.90;45.00;;;;;;5104442;28;20040;-41
2022/03/15 10:13:36;;;;;;;3.00;2.70;;;21.80;45.10;;;;;;5104988;28;20032;-41
2022/03/15 10:16:05;;;;;;;3.55;2.88;;;21.80;45.00;;;;;;5104294;28;20063;-41
2022/03/15 10:18:31;;;;;;;3.00;2.67;;;21.80;45.50;;;;;;5093679;28;20048;-41
2022/03/15 10:20:57;;;;;;;3.28;2.85;;;21.90;45.10;;;;;;5103761;28;20039;-41
2022/03/15 10:23:29;;;;;;;4.03;3.13;;;21.90;45.00;;;;;;5103119;28;20070;-41
2022/03/15 10:25:56;;;;;;;3.20;2.83;;;21.90;45.10;;;;;;5104315;28;20047;-41
2022/03/15 10:28:22;;;;;;;4.07;2.97;;;21.80;45.00;;;;;;5094001;28;20040;-41
2022/03/15 10:30:48;;;;;;;3.47;2.95;;;21.80;45.10;;;;;;5103030;28;20048;-41
2022/03/15 10:33:16;;;;;;;3.17;2.58;;;21.80;45.00;;;;;;5104365;28;20111;-41
2022/03/15 10:35:44;;;;;;;3.60;2.88;;;21.80;45.00;;;;;;5104151;28;20024;-41
2022/03/15 10:38:10;;;;;;;3.72;2.70;;;21.90;45.00;;;;;;5093176;28;20107;-41
2022/03/15 10:40:38;;;;;;;4.65;2.90;;;21.90;45.10;;;;;;5103387;28;20040;-41
2022/03/15 10:43:09;;;;;;;3.85;2.95;;;21.90;45.20;;;;;;5102775;28;20016;-41
2022/03/15 10:45:35;;;;;;;3.28;2.95;;;21.80;45.20;;;;;;5104065;28;20039;-41
2022/03/15 10:48:02;;;;;;;3.17;2.83;;;21.80;45.10;;;;;;5103847;28;20028;-41
2022/03/15 10:50:30;;;;;;;3.33;2.80;;;21.80;45.30;;;;;;5103574;28;20043;-40
2022/03/15 10:52:56;;;;;;;5.05;2.80;;;21.90;45.20;;;;;;5101294;28;20113;-40
2022/03/15 10:55:28;;;;;;;5.38;2.63;;;21.90;45.30;;;;;;5103406;28;20071;-49
2022/03/15 10:58:05;;;;;;;4.15;2.90;;;21.90;45.30;;;;;;5103206;28;20024;-47
2022/03/15 11:00:35;;;;;;;5.28;3.00;;;21.90;45.30;;;;;;5095169;28;20027;-45
2022/03/15 11:03:02;;;;;;;3.05;2.72;;;21.90;45.20;;;;;;5102780;28;20057;-45
2022/03/15 11:05:35;;;;;;;5.50;3.20;;;21.90;45.20;;;;;;5103145;28;20043;-45
2022/03/15 11:08:05;;;;;;;5.47;2.63;;;22.00;45.30;;;;;;5102221;28;20027;-48
2022/03/15 11:10:32;;;;;;;7.95;3.17;;;22.00;45.40;;;;;;5100783;28;20043;-45
2022/03/15 11:13:02;;;;;;;6.03;3.30;;;21.90;45.30;;;;;;5103000;28;20031;-43
2022/03/15 11:15:30;;;;;;;6.40;2.90;;;21.90;45.20;;;;;;5097820;28;20557;-45
2022/03/15 11:18:01;;;;;;;3.90;3.28;;;21.90;44.90;;;;;;5100386;28;20043;-44
2022/03/15 11:20:28;;;;;;;5.07;2.97;;;21.90;44.90;;;;;;5103228;28;20094;-45
2022/03/15 11:22:56;;;;;;;;;;;21.90;45.00;;;;;;5103394;28;20024;-44
2022/03/15 11:25:22;;;;;;;3.22;2.83;;;22.00;44.90;;;;;;5103221;28;19915;-45
2022/03/15 11:27:51;;;;;;;4.32;3.40;;;21.90;45.00;;;;;;5103289;28;20078;-45
2022/03/15 11:30:19;;;;;;;3.60;2.92;;;21.90;45.00;;;;;;5083619;28;20040;-44
2022/03/15 11:32:45;;;;;;;4.15;2.97;;;21.80;44.90;;;;;;5082638;28;20453;-44
2022/03/15 11:35:12;;;;;;;3.75;3.28;;;21.80;44.80;;;;;;5082802;28;20071;-45
2022/03/15 11:37:38;;;;;;;3.90;3.03;;;21.90;44.90;;;;;;5083283;28;20540;-44
2022/03/15 11:40:09;;;;;;;3.45;3.08;;;21.90;44.90;;;;;;5103187;28;20035;-45
2022/03/15 11:42:36;;;;;;;3.92;3.10;;;21.90;44.90;;;;;;5102736;28;20020;-45
2022/03/15 11:45:17;;;;;;;3.85;3.00;;;21.80;45.00;;;;;;5084785;28;20093;-44
2022/03/15 11:47:48;;;;;;;3.05;2.75;;;21.80;45.00;;;;;;5102930;28;20484;-45
2022/03/15 11:50:21;;;;;;;3.72;3.10;;;21.80;44.80;;;;;;5084188;28;20040;-45
2022/03/15 11:53:13;;;;;;;3.60;2.92;;;21.80;44.80;;;;;;5084356;28;20031;-45
2022/03/15 11:55:56;;;;;;;3.75;2.90;;;21.90;44.90;;;;;;5082550;28;20548;-46
2022/03/15 11:58:27;;;;;;;4.57;3.25;;;21.90;44.90;;;;;;5094800;28;20048;-45
2022/03/15 12:00:53;;;;;;;3.92;2.97;;;21.80;45.00;;;;;;5085048;28;20107;-44
2022/03/15 12:03:21;;;;;;;4.03;3.10;;;21.80;45.00;;;;;;5102326;28;20119;-45
2022/03/15 12:05:57;;;;;;;4.20;3.22;;;21.70;44.80;;;;;;5102595;28;20084;-44
2022/03/15 12:08:27;;;;;;;3.90;3.30;;;21.80;45.00;;;;;;5096986;28;20039;-44
2022/03/15 12:10:56;;;;;;;3.20;2.83;;;21.80;45.00;;;;;;5102270;28;20036;-45
2022/03/15 12:13:43;;;;;;;3.97;3.05;;;21.80;44.80;;;;;;5102434;28;20036;-44
2022/03/15 12:16:15;;;;;;;4.32;3.70;;;21.80;45.00;;;;;;5102645;28;20755;-46
2022/03/15 12:19:12;;;;;;;3.78;3.00;;;21.70;44.90;;;;;;5102336;28;20047;-44
2022/03/15 12:21:50;;;;;;;3.45;2.97;;;21.70;44.90;;;;;;5102227;28;20038;-45
2022/03/15 12:24:28;;;;;;;4.28;3.50;;;21.70;45.00;;;;;;5092936;28;20078;-44
2022/03/15 12:27:01;;;;;;;3.38;3.05;;;21.80;45.10;;;;;;5082116;28;20062;-44
2022/03/15 12:29:27;;;;;;;3.67;3.03;;;21.80;45.10;;;;;;5094520;28;20384;-45
2022/03/15 12:31:54;;;;;;;3.28;2.95;;;21.70;45.10;;;;;;5101844;28;20032;-45
2022/03/15 12:34:20;;;;;;;5.03;3.13;;;21.70;45.00;;;;;;5102111;28;20032;-45
2022/03/15 12:36:53;;;;;;;3.20;2.90;;;21.70;44.90;;;;;;5102340;28;20033;-45
2022/03/15 12:39:22;;;;;;;4.40;3.08;;;21.60;45.00;;;;;;5101121;28;20035;-44
2022/03/15 12:41:49;;;;;;;3.55;3.00;;;21.70;45.10;;;;;;5102227;28;20028;-45
2022/03/15 12:44:22;;;;;;;4.47;3.25;;;21.70;45.10;;;;;;5098625;28;20028;-45
2022/03/15 12:46:48;;;;;;;3.83;2.97;;;21.70;45.20;;;;;;5068125;28;20028;-44
2022/03/15 12:49:18;;;;;;;3.72;3.28;;;21.70;45.10;;;;;;5067477;28;20054;-45